Sun Maiden — CZ4548 — position and weather

sailwx.info

Track history (hours):
 
Tides and Currents Weather Stations Pressure Air Temp Water Temp Dewpoint Dewpoint Depression Visibility Wind Speed Wind Dir Waves Ship Positions

Sun Maiden

Last reported at 2018-Jun-20 19:07 UTC. Time now 2018-Jun-23 17:26 UTC.
Position N 48°22' W 124°02'.

Length 30 m; draft 2.8 m.

Type: Fishing. MMSI: 316003459.

Date/timePositionNaut miles runAvg speedWind from/ knotsBaromVisibWave heightAir tempDewpointWater temp
2018-Jun-20 19:07N 48°22' W 124°02'1 8.4
2018-Jun-20 18:59N 48°23' W 124°03'4 8.4
2018-Jun-20 18:28N 48°24' W 124°09'4 8.6
2018-Jun-20 18:00N 48°25' W 124°15'4 8.7
2018-Jun-20 17:30N 48°27' W 124°21'4 8.6
2018-Jun-20 17:00N 48°28' W 124°27'4 8.4
2018-Jun-20 16:30N 48°30' W 124°33'4 8.6
2018-Jun-20 16:00N 48°32' W 124°39'4 8.6
2018-Jun-20 15:30N 48°33' W 124°45'4 8.4
2018-Jun-20 15:00N 48°35' W 124°51'20 8.2
2018-Jun-20 12:36N 48°44' W 125°18'3 8.4
2018-Jun-20 12:13N 48°45' W 125°22'2 8.3
2018-Jun-20 12:00N 48°46' W 125°24'4 8.1
2018-Jun-20 11:30N 48°48' W 125°30'3 6.7
2018-Jun-20 11:00N 48°50' W 125°33'4 8.4
2018-Jun-20 10:30N 48°55' W 125°32'2 3.8
2018-Jun-20 10:00N 48°56' W 125°32'0 0.1
2018-Jun-20 09:30N 48°56' W 125°32'0 0.1
2018-Jun-20 09:00N 48°56' W 125°32'0 0.1
2018-Jun-20 08:30N 48°56' W 125°32'0 0.0
2018-Jun-20 08:00N 48°56' W 125°32'0 0.0
2018-Jun-20 07:30N 48°56' W 125°32'0 0.0
2018-Jun-20 07:00N 48°56' W 125°32'0 0.0
2018-Jun-20 06:30N 48°56' W 125°32'0 0.0
2018-Jun-20 06:00N 48°56' W 125°32'0 0.0
2018-Jun-20 05:30N 48°56' W 125°32'0 0.0
2018-Jun-20 05:00N 48°56' W 125°32'0 0.0
2018-Jun-20 04:30N 48°56' W 125°32'0 0.0
2018-Jun-20 04:00N 48°56' W 125°32'0 0.7
2018-Jun-20 03:30N 48°56' W 125°32'4 7.2
2018-Jun-20 03:00N 48°53' W 125°31'4 7.5
2018-Jun-20 02:29N 48°49' W 125°28'4 7.5
2018-Jun-20 02:00N 48°46' W 125°26'4 0.3
2018-Jun-19 12:26N 48°42' W 125°25'6 8.3
2018-Jun-19 11:42N 48°47' W 125°28'2 7.8
2018-Jun-19 11:29N 48°49' W 125°29'4 8.0
2018-Jun-19 11:00N 48°53' W 125°31'  
2018-Jun-15 03:07N 48°56' W 125°32'0 0.0
2018-Jun-15 03:00N 48°56' W 125°32'3 6.1
2018-Jun-15 02:30N 48°53' W 125°33'4 8.6
2018-Jun-15 02:00N 48°50' W 125°37'5 9.2
2018-Jun-15 01:26N 48°46' W 125°43'21 1.6
2018-Jun-14 12:03N 48°27' W 125°53'4 8.5
2018-Jun-14 11:38N 48°30' W 125°51'2 8.9
2018-Jun-14 11:24N 48°32' W 125°50'4 8.9
2018-Jun-14 10:57N 48°35' W 125°47'4 8.7
2018-Jun-14 10:30N 48°39' W 125°44'4 8.3
2018-Jun-14 10:00N 48°42' W 125°41'4 8.3
2018-Jun-14 09:30N 48°46' W 125°38'4 8.6
2018-Jun-14 09:01N 48°50' W 125°35'4 8.7
2018-Jun-14 08:30N 48°54' W 125°32'3 5.5
2018-Jun-14 08:00N 48°56' W 125°32'0 0.0
2018-Jun-14 07:30N 48°56' W 125°32'0 0.0
2018-Jun-14 07:00N 48°56' W 125°32'0 0.0
2018-Jun-14 06:30N 48°56' W 125°32'0 0.0
2018-Jun-14 06:00N 48°56' W 125°32'0 0.0
2018-Jun-14 05:30N 48°56' W 125°32'0 0.0
2018-Jun-14 05:00N 48°56' W 125°32'0 0.0
2018-Jun-14 04:30N 48°56' W 125°32'0 0.0
2018-Jun-14 04:00N 48°56' W 125°32'0 0.0
2018-Jun-14 03:30N 48°56' W 125°32'0 0.0
2018-Jun-14 03:00N 48°56' W 125°32'0 0.0
2018-Jun-14 02:30N 48°56' W 125°32'0 0.0
2018-Jun-14 02:00N 48°56' W 125°32'0 0.0
2018-Jun-14 01:30N 48°56' W 125°32'0 0.0
2018-Jun-14 01:00N 48°56' W 125°32'0 0.1
2018-Jun-14 00:30N 48°56' W 125°32'0 0.1
2018-Jun-14 00:00N 48°56' W 125°32'0 0.0
2018-Jun-13 23:30N 48°56' W 125°32'0 0.1
2018-Jun-13 23:00N 48°56' W 125°32'0 0.1
2018-Jun-13 22:30N 48°56' W 125°32'1 1.9
2018-Jun-13 22:00N 48°57' W 125°33'0 0.2
2018-Jun-13 21:30N 48°57' W 125°33'0 0.0
2018-Jun-13 21:00N 48°57' W 125°33'0 0.0
2018-Jun-13 20:31N 48°57' W 125°33'0 0.0
2018-Jun-13 20:00N 48°57' W 125°33'0 0.0
2018-Jun-13 19:30N 48°57' W 125°33'0 0.0
2018-Jun-13 19:00N 48°57' W 125°33'0 0.0
2018-Jun-13 18:30N 48°57' W 125°33'0 0.1
2018-Jun-13 18:00N 48°57' W 125°33'1 1.6
2018-Jun-13 17:30N 48°56' W 125°33'0 0.0
2018-Jun-13 17:00N 48°56' W 125°33'0 0.0
2018-Jun-13 16:30N 48°56' W 125°33'0 0.0
2018-Jun-13 16:00N 48°56' W 125°33'0 0.0
2018-Jun-13 15:30N 48°56' W 125°33'0 0.0
2018-Jun-13 15:00N 48°56' W 125°33'0 0.0
2018-Jun-13 14:30N 48°56' W 125°33'0 0.0
2018-Jun-13 14:00N 48°56' W 125°33'0 0.0
2018-Jun-13 13:30N 48°56' W 125°33'0 0.0
2018-Jun-13 13:00N 48°56' W 125°33'0 0.0
2018-Jun-13 12:30N 48°56' W 125°33'0 0.0
2018-Jun-13 12:00N 48°56' W 125°33'0 0.0
2018-Jun-13 11:30N 48°56' W 125°33'0 0.0
2018-Jun-13 11:00N 48°56' W 125°33'0 0.0
2018-Jun-13 10:30N 48°56' W 125°33'0 0.0
2018-Jun-13 10:00N 48°56' W 125°33'0 0.0
2018-Jun-13 09:30N 48°56' W 125°33'0 0.0
2018-Jun-13 09:00N 48°56' W 125°33'0 0.0
2018-Jun-13 08:30N 48°56' W 125°33'0 0.0
2018-Jun-13 08:00N 48°56' W 125°33'0 0.0
2018-Jun-13 07:30N 48°56' W 125°33'0 0.0
2018-Jun-13 07:00N 48°56' W 125°33'0 0.0
2018-Jun-13 06:30N 48°56' W 125°33'0 0.0
2018-Jun-13 06:00N 48°56' W 125°33'0 0.0
2018-Jun-13 05:30N 48°56' W 125°33'0 0.0
2018-Jun-13 05:00N 48°56' W 125°33'0 0.0
2018-Jun-13 04:30N 48°56' W 125°33'1 1.4
2018-Jun-13 04:00N 48°56' W 125°32'4 7.5
2018-Jun-13 03:30N 48°53' W 125°35'4 8.9
2018-Jun-13 03:00N 48°51' W 125°41'5 8.9
2018-Jun-13 02:29N 48°48' W 125°47'4 8.4
2018-Jun-13 01:59N 48°45' W 125°52'16 3.2
2018-Jun-12 21:10N 48°36' W 126°11'0 0.8
2018-Jun-12 21:00N 48°36' W 126°10'1 1.9
2018-Jun-12 20:22N 48°35' W 126°10'1 2.7
2018-Jun-12 19:57N 48°34' W 126°10'9 4.3
2018-Jun-12 17:49N 48°25' W 126°05'22 2.8
2018-Jun-12 10:02N 48°38' W 125°38'0 8.1
2018-Jun-12 10:00N 48°38' W 125°37'4 8.5
2018-Jun-12 09:30N 48°42' W 125°36'4 8.8
2018-Jun-12 09:00N 48°47' W 125°34'4 8.7
2018-Jun-12 08:30N 48°51' W 125°33'4 8.6
2018-Jun-12 08:00N 48°55' W 125°31'2 3.3
2018-Jun-12 07:30N 48°56' W 125°32'0 0.0
2018-Jun-12 07:00N 48°56' W 125°32'0 0.0
2018-Jun-12 06:30N 48°56' W 125°32'0 0.1
2018-Jun-12 06:00N 48°56' W 125°32'0 0.1
2018-Jun-12 05:30N 48°56' W 125°32'0 0.0
2018-Jun-12 05:00N 48°56' W 125°32'0 0.0
2018-Jun-12 04:30N 48°56' W 125°32'0 0.0
2018-Jun-12 04:00N 48°56' W 125°32'0 0.3
2018-Jun-12 03:30N 48°56' W 125°32'  
Track history (hours):
 
Tides and Currents Weather Stations Pressure Air Temp Water Temp Dewpoint Dewpoint Depression Visibility Wind Speed Wind Dir Waves Ship Positions

Sun Maiden

Last reported at 2018-Jun-20 19:07 UTC. Time now 2018-Jun-23 17:26 UTC.
Position N 48°22' W 124°02'.

Length 30 m; draft 2.8 m.

Type: Fishing. MMSI: 316003459.

Date/timePositionNaut miles runAvg speedWind from/ knotsBaromVisibWave heightAir tempDewpointWater temp
2018-Jun-20 19:07N 48°22' W 124°02'1 8.4
2018-Jun-20 18:59N 48°23' W 124°03'4 8.4
2018-Jun-20 18:28N 48°24' W 124°09'4 8.6
2018-Jun-20 18:00N 48°25' W 124°15'4 8.7
2018-Jun-20 17:30N 48°27' W 124°21'4 8.6
2018-Jun-20 17:00N 48°28' W 124°27'4 8.4
2018-Jun-20 16:30N 48°30' W 124°33'4 8.6
2018-Jun-20 16:00N 48°32' W 124°39'4 8.6
2018-Jun-20 15:30N 48°33' W 124°45'4 8.4
2018-Jun-20 15:00N 48°35' W 124°51'20 8.2
2018-Jun-20 12:36N 48°44' W 125°18'3 8.4
2018-Jun-20 12:13N 48°45' W 125°22'2 8.3
2018-Jun-20 12:00N 48°46' W 125°24'4 8.1
2018-Jun-20 11:30N 48°48' W 125°30'3 6.7
2018-Jun-20 11:00N 48°50' W 125°33'4 8.4
2018-Jun-20 10:30N 48°55' W 125°32'2 3.8
2018-Jun-20 10:00N 48°56' W 125°32'0 0.1
2018-Jun-20 09:30N 48°56' W 125°32'0 0.1
2018-Jun-20 09:00N 48°56' W 125°32'0 0.1
2018-Jun-20 08:30N 48°56' W 125°32'0 0.0
2018-Jun-20 08:00N 48°56' W 125°32'0 0.0
2018-Jun-20 07:30N 48°56' W 125°32'0 0.0
2018-Jun-20 07:00N 48°56' W 125°32'0 0.0
2018-Jun-20 06:30N 48°56' W 125°32'0 0.0
2018-Jun-20 06:00N 48°56' W 125°32'0 0.0
2018-Jun-20 05:30N 48°56' W 125°32'0 0.0
2018-Jun-20 05:00N 48°56' W 125°32'0 0.0
2018-Jun-20 04:30N 48°56' W 125°32'0 0.0
2018-Jun-20 04:00N 48°56' W 125°32'0 0.7
2018-Jun-20 03:30N 48°56' W 125°32'4 7.2
2018-Jun-20 03:00N 48°53' W 125°31'4 7.5
2018-Jun-20 02:29N 48°49' W 125°28'4 7.5
2018-Jun-20 02:00N 48°46' W 125°26'4 0.3
2018-Jun-19 12:26N 48°42' W 125°25'6 8.3
2018-Jun-19 11:42N 48°47' W 125°28'2 7.8
2018-Jun-19 11:29N 48°49' W 125°29'4 8.0
2018-Jun-19 11:00N 48°53' W 125°31'  
2018-Jun-15 03:07N 48°56' W 125°32'0 0.0
2018-Jun-15 03:00N 48°56' W 125°32'3 6.1
2018-Jun-15 02:30N 48°53' W 125°33'4 8.6
2018-Jun-15 02:00N 48°50' W 125°37'5 9.2
2018-Jun-15 01:26N 48°46' W 125°43'21 1.6
2018-Jun-14 12:03N 48°27' W 125°53'4 8.5
2018-Jun-14 11:38N 48°30' W 125°51'2 8.9
2018-Jun-14 11:24N 48°32' W 125°50'4 8.9
2018-Jun-14 10:57N 48°35' W 125°47'4 8.7
2018-Jun-14 10:30N 48°39' W 125°44'4 8.3
2018-Jun-14 10:00N 48°42' W 125°41'4 8.3
2018-Jun-14 09:30N 48°46' W 125°38'4 8.6
2018-Jun-14 09:01N 48°50' W 125°35'4 8.7
2018-Jun-14 08:30N 48°54' W 125°32'3 5.5
2018-Jun-14 08:00N 48°56' W 125°32'0 0.0
2018-Jun-14 07:30N 48°56' W 125°32'0 0.0
2018-Jun-14 07:00N 48°56' W 125°32'0 0.0
2018-Jun-14 06:30N 48°56' W 125°32'0 0.0
2018-Jun-14 06:00N 48°56' W 125°32'0 0.0
2018-Jun-14 05:30N 48°56' W 125°32'0 0.0
2018-Jun-14 05:00N 48°56' W 125°32'0 0.0
2018-Jun-14 04:30N 48°56' W 125°32'0 0.0
2018-Jun-14 04:00N 48°56' W 125°32'0 0.0
2018-Jun-14 03:30N 48°56' W 125°32'0 0.0
2018-Jun-14 03:00N 48°56' W 125°32'0 0.0
2018-Jun-14 02:30N 48°56' W 125°32'0 0.0
2018-Jun-14 02:00N 48°56' W 125°32'0 0.0
2018-Jun-14 01:30N 48°56' W 125°32'0 0.0
2018-Jun-14 01:00N 48°56' W 125°32'0 0.1
2018-Jun-14 00:30N 48°56' W 125°32'0 0.1
2018-Jun-14 00:00N 48°56' W 125°32'0 0.0
2018-Jun-13 23:30N 48°56' W 125°32'0 0.1
2018-Jun-13 23:00N 48°56' W 125°32'0 0.1
2018-Jun-13 22:30N 48°56' W 125°32'1 1.9
2018-Jun-13 22:00N 48°57' W 125°33'0 0.2
2018-Jun-13 21:30N 48°57' W 125°33'0 0.0
2018-Jun-13 21:00N 48°57' W 125°33'0 0.0
2018-Jun-13 20:31N 48°57' W 125°33'0 0.0
2018-Jun-13 20:00N 48°57' W 125°33'0 0.0
2018-Jun-13 19:30N 48°57' W 125°33'0 0.0
2018-Jun-13 19:00N 48°57' W 125°33'0 0.0
2018-Jun-13 18:30N 48°57' W 125°33'0 0.1
2018-Jun-13 18:00N 48°57' W 125°33'1 1.6
2018-Jun-13 17:30N 48°56' W 125°33'0 0.0
2018-Jun-13 17:00N 48°56' W 125°33'0 0.0
2018-Jun-13 16:30N 48°56' W 125°33'0 0.0
2018-Jun-13 16:00N 48°56' W 125°33'0 0.0
2018-Jun-13 15:30N 48°56' W 125°33'0 0.0
2018-Jun-13 15:00N 48°56' W 125°33'0 0.0
2018-Jun-13 14:30N 48°56' W 125°33'0 0.0
2018-Jun-13 14:00N 48°56' W 125°33'0 0.0
2018-Jun-13 13:30N 48°56' W 125°33'0 0.0
2018-Jun-13 13:00N 48°56' W 125°33'0 0.0
2018-Jun-13 12:30N 48°56' W 125°33'0 0.0
2018-Jun-13 12:00N 48°56' W 125°33'0 0.0
2018-Jun-13 11:30N 48°56' W 125°33'0 0.0
2018-Jun-13 11:00N 48°56' W 125°33'0 0.0
2018-Jun-13 10:30N 48°56' W 125°33'0 0.0
2018-Jun-13 10:00N 48°56' W 125°33'0 0.0
2018-Jun-13 09:30N 48°56' W 125°33'0 0.0
2018-Jun-13 09:00N 48°56' W 125°33'0 0.0
2018-Jun-13 08:30N 48°56' W 125°33'0 0.0
2018-Jun-13 08:00N 48°56' W 125°33'0 0.0
2018-Jun-13 07:30N 48°56' W 125°33'0 0.0
2018-Jun-13 07:00N 48°56' W 125°33'0 0.0
2018-Jun-13 06:30N 48°56' W 125°33'0 0.0
2018-Jun-13 06:00N 48°56' W 125°33'0 0.0
2018-Jun-13 05:30N 48°56' W 125°33'0 0.0
2018-Jun-13 05:00N 48°56' W 125°33'0 0.0
2018-Jun-13 04:30N 48°56' W 125°33'1 1.4
2018-Jun-13 04:00N 48°56' W 125°32'4 7.5
2018-Jun-13 03:30N 48°53' W 125°35'4 8.9
2018-Jun-13 03:00N 48°51' W 125°41'5 8.9
2018-Jun-13 02:29N 48°48' W 125°47'4 8.4
2018-Jun-13 01:59N 48°45' W 125°52'16 3.2
2018-Jun-12 21:10N 48°36' W 126°11'0 0.8
2018-Jun-12 21:00N 48°36' W 126°10'1 1.9
2018-Jun-12 20:22N 48°35' W 126°10'1 2.7
2018-Jun-12 19:57N 48°34' W 126°10'9 4.3
2018-Jun-12 17:49N 48°25' W 126°05'22 2.8
2018-Jun-12 10:02N 48°38' W 125°38'0 8.1
2018-Jun-12 10:00N 48°38' W 125°37'4 8.5
2018-Jun-12 09:30N 48°42' W 125°36'4 8.8
2018-Jun-12 09:00N 48°47' W 125°34'4 8.7
2018-Jun-12 08:30N 48°51' W 125°33'4 8.6
2018-Jun-12 08:00N 48°55' W 125°31'2 3.3
2018-Jun-12 07:30N 48°56' W 125°32'0 0.0
2018-Jun-12 07:00N 48°56' W 125°32'0 0.0
2018-Jun-12 06:30N 48°56' W 125°32'0 0.1
2018-Jun-12 06:00N 48°56' W 125°32'0 0.1
2018-Jun-12 05:30N 48°56' W 125°32'0 0.0
2018-Jun-12 05:00N 48°56' W 125°32'0 0.0
2018-Jun-12 04:30N 48°56' W 125°32'0 0.0
2018-Jun-12 04:00N 48°56' W 125°32'0 0.3
2018-Jun-12 03:30N 48°56' W 125°32'  

Dump ship's entire track history